createdAt,value
2018-07-05T00:02:19.998Z,97902.49
2018-07-05T00:05:02.446Z,97903.44
2018-07-05T00:07:44.338Z,97892.78
2018-07-05T00:10:24.875Z,97894.36
2018-07-05T00:13:07.011Z,97897.95
2018-07-05T00:15:47.576Z,97904.40
2018-07-05T00:18:30.619Z,97897.56
2018-07-05T00:21:11.183Z,97888.23
2018-07-05T00:23:52.209Z,97878.34
2018-07-05T00:26:32.832Z,97891.35
2018-07-05T00:29:17.742Z,97900.13
2018-07-05T00:31:58.285Z,97894.64
2018-07-05T00:34:41.310Z,97898.54
2018-07-05T00:37:21.597Z,97901.27
2018-07-05T00:48:40.404Z,97897.39
2018-07-05T00:51:21.131Z,97894.03
2018-07-05T00:54:04.211Z,97890.67
2018-07-05T00:56:44.735Z,97888.31
2018-07-05T00:59:26.302Z,97882.27
2018-07-05T01:02:08.169Z,97888.45
2018-07-05T01:04:52.336Z,97883.52
2018-07-05T01:07:36.891Z,97881.16
2018-07-05T01:10:17.587Z,97877.83
2018-07-05T01:12:59.460Z,97879.76
2018-07-05T01:15:41.620Z,97847.58
2018-07-05T01:18:22.066Z,97891.81
2018-07-05T01:21:03.219Z,97897.58
2018-07-05T01:23:44.266Z,97904.06
2018-07-05T01:26:26.210Z,97900.23
2018-07-05T01:29:08.362Z,97898.70
2018-07-05T01:31:52.236Z,97900.30
2018-07-05T01:34:35.021Z,97796.25
2018-07-05T01:37:15.832Z,97902.95
2018-07-05T01:39:56.443Z,97904.87
2018-07-05T01:42:37.149Z,97904.19
2018-07-05T01:45:17.640Z,97906.23
2018-07-05T01:48:00.713Z,97904.43
2018-07-05T01:50:46.254Z,97905.59
2018-07-05T01:56:21.492Z,97903.59
2018-07-05T01:59:02.866Z,97912.52
2018-07-05T02:01:45.052Z,97907.47
2018-07-05T02:04:26.266Z,97909.46
2018-07-05T02:07:13.333Z,97906.49
2018-07-05T02:09:54.512Z,97906.41
2018-07-05T02:12:42.018Z,97904.73
2018-07-05T02:15:22.690Z,97899.99
2018-07-05T02:20:55.942Z,97901.67
2018-07-05T02:23:36.584Z,97898.07
2018-07-05T02:26:17.451Z,97902.72
2018-07-05T02:28:59.132Z,97896.19
2018-07-05T02:31:45.763Z,97893.75
2018-07-05T02:34:28.512Z,97895.27
2018-07-05T02:37:14.494Z,97892.98
2018-07-05T02:39:55.276Z,97887.02
2018-07-05T02:42:37.220Z,97891.30
2018-07-05T02:45:18.711Z,97887.41
2018-07-05T02:48:00.648Z,97881.23
2018-07-05T02:50:41.125Z,97886.88
2018-07-05T02:53:21.777Z,97886.88
2018-07-05T02:56:03.960Z,97882.19
2018-07-05T02:58:45.963Z,97880.27
2018-07-05T03:01:26.626Z,97879.91
2018-07-05T03:07:01.503Z,97864.41
2018-07-05T03:09:42.320Z,97873.77
2018-07-05T03:12:22.993Z,97872.33
2018-07-05T03:15:03.498Z,97872.69
2018-07-05T03:17:44.314Z,97865.95
2018-07-05T03:20:25.013Z,97867.39
2018-07-05T03:23:08.222Z,97862.88
2018-07-05T03:25:49.196Z,97863.45
2018-07-05T03:28:36.303Z,97864.28
2018-07-05T03:31:16.820Z,97869.62
2018-07-05T03:34:01.626Z,97871.66
2018-07-05T03:36:42.120Z,97863.86
2018-07-05T03:39:23.891Z,97870.81
2018-07-05T03:42:04.347Z,97876.22
2018-07-05T03:44:45.149Z,97877.34
2018-07-05T03:47:25.502Z,97884.23
2018-07-05T03:50:06.283Z,97881.05
2018-07-05T03:52:46.910Z,97878.32
2018-07-05T03:55:33.419Z,97880.09
2018-07-05T04:01:11.511Z,97877.73
2018-07-05T04:03:52.051Z,97869.03
2018-07-05T04:06:33.685Z,97876.91
2018-07-05T04:09:14.134Z,97896.64
2018-07-05T04:11:55.982Z,97893.09
2018-07-05T04:14:36.473Z,97908.91
2018-07-05T04:17:17.280Z,97910.62
2018-07-05T04:19:57.555Z,97916.20
2018-07-05T04:22:38.564Z,97909.05
2018-07-05T04:25:19.093Z,97898.75
2018-07-05T04:27:59.920Z,97906.94
2018-07-05T04:30:40.425Z,97900.25
2018-07-05T04:33:21.396Z,97896.82
2018-07-05T04:36:01.801Z,97897.59
2018-07-05T04:38:49.679Z,97896.36
2018-07-05T04:41:30.250Z,97888.98
2018-07-05T04:44:16.925Z,97883.17
2018-07-05T04:46:57.500Z,97884.66
2018-07-05T04:49:43.016Z,97876.91
2018-07-05T04:52:38.535Z,97875.37
2018-07-05T04:55:21.978Z,97882.27
2018-07-05T04:58:04.532Z,97894.03
2018-07-05T05:00:48.036Z,97892.97
2018-07-05T05:03:33.129Z,97890.66
2018-07-05T05:06:26.669Z,97889.06
2018-07-05T05:09:16.236Z,97888.16
2018-07-05T05:12:00.014Z,97884.73
2018-07-05T05:32:06.197Z,97927.35
2018-07-05T05:37:47.901Z,97936.48
2018-07-05T05:40:33.346Z,97936.86
2018-07-05T05:43:15.392Z,97956.78
2018-07-05T05:49:13.096Z,97951.03
2018-07-05T05:52:05.638Z,97957.71
2018-07-05T05:54:46.225Z,97960.78
2018-07-05T05:57:27.079Z,97964.47
2018-07-05T06:00:07.783Z,97964.81
2018-07-05T06:02:49.723Z,97975.36
2018-07-05T06:05:32.917Z,97977.93
2018-07-05T06:08:14.057Z,97982.01
2018-07-05T06:11:04.056Z,97995.98
2018-07-05T06:13:46.910Z,98000.41
2018-07-05T06:19:19.259Z,98003.50
2018-07-05T06:22:00.690Z,98009.34
2018-07-05T06:36:16.726Z,97998.73
2018-07-05T06:39:02.856Z,98005.92
2018-07-05T06:41:45.229Z,98009.45
2018-07-05T06:44:26.102Z,98011.02
2018-07-05T06:47:08.125Z,98007.25
2018-07-05T06:49:48.747Z,98013.59
2018-07-05T06:52:29.502Z,98011.95
2018-07-05T06:55:09.997Z,98012.29
2018-07-05T06:57:51.213Z,98012.97
2018-07-05T07:00:31.896Z,98008.31
2018-07-05T07:03:12.732Z,98003.65
2018-07-05T07:05:53.584Z,98000.66
2018-07-05T07:08:34.304Z,97999.36
2018-07-05T07:11:14.871Z,98000.19
2018-07-05T07:17:25.883Z,97988.70
2018-07-05T07:20:06.490Z,97989.37
2018-07-05T07:22:46.922Z,97978.03
2018-07-05T07:25:27.754Z,97983.19
2018-07-05T07:28:13.612Z,97974.52
2018-07-05T07:30:54.444Z,97965.91
2018-07-05T07:33:36.084Z,97963.72
2018-07-05T07:36:16.777Z,97960.06
2018-07-05T07:38:57.804Z,97957.06
2018-07-05T07:41:42.669Z,97962.90
2018-07-05T07:44:11.139Z,97961.73
2018-07-05T07:46:39.452Z,97957.07
2018-07-05T07:49:07.930Z,97949.77
2018-07-05T07:51:36.295Z,97958.71
2018-07-05T07:54:04.822Z,97959.05
2018-07-05T07:56:33.220Z,97955.56
2018-07-05T07:59:02.603Z,97961.20
2018-07-05T08:01:32.360Z,97955.91
2018-07-05T08:04:01.329Z,97958.71
2018-07-05T08:06:29.624Z,97962.72
2018-07-05T08:09:01.470Z,97964.23
2018-07-05T08:11:29.961Z,97971.37
2018-07-05T08:13:58.268Z,97970.05
2018-07-05T08:16:27.839Z,97972.71
2018-07-05T08:18:56.403Z,97972.03
2018-07-05T08:21:25.101Z,97975.70
2018-07-05T08:23:55.733Z,97978.70
2018-07-05T08:26:24.525Z,97978.03
2018-07-05T08:28:53.735Z,97984.23
2018-07-05T08:31:26.832Z,97993.37
2018-07-05T08:33:57.903Z,97991.52
2018-07-05T08:36:26.252Z,97991.69
2018-07-05T08:39:00.745Z,97999.36
2018-07-05T08:41:28.961Z,97995.01
2018-07-05T08:43:57.411Z,97992.20
2018-07-05T08:46:27.097Z,97995.16
2018-07-05T08:48:55.342Z,97993.30
2018-07-05T08:51:23.672Z,98001.42
2018-07-05T08:53:52.128Z,98002.91
2018-07-05T08:56:20.476Z,98004.09
2018-07-05T08:58:48.945Z,98009.20
2018-07-05T09:01:18.634Z,98006.45
2018-07-05T09:03:47.024Z,98009.99
2018-07-05T09:06:15.308Z,98007.71
2018-07-05T09:08:52.057Z,97999.48
2018-07-05T09:11:20.509Z,97997.41
2018-07-05T09:13:48.878Z,98003.91
2018-07-05T09:16:17.288Z,98003.48
2018-07-05T09:18:45.673Z,98004.85
2018-07-05T09:21:21.353Z,98004.93
2018-07-05T09:23:51.357Z,98010.07
2018-07-05T09:26:26.181Z,98005.58
2018-07-05T09:29:15.649Z,97995.75
2018-07-05T09:31:45.683Z,98002.73
2018-07-05T09:34:20.185Z,98012.70
2018-07-05T09:36:48.501Z,98019.02
2018-07-05T09:39:17.064Z,98013.98
2018-07-05T09:41:45.455Z,98010.14
2018-07-05T09:44:13.812Z,98018.48
2018-07-05T09:46:42.501Z,98016.62
2018-07-05T09:49:10.785Z,98020.47
2018-07-05T09:51:39.061Z,98020.77
2018-07-05T09:54:07.507Z,98022.73
2018-07-05T09:56:35.817Z,98025.51
2018-07-05T09:59:04.187Z,98026.69
2018-07-05T10:01:35.112Z,98031.67
2018-07-05T10:04:03.447Z,98030.34
2018-07-05T10:06:31.806Z,98033.16
2018-07-05T10:09:01.629Z,98033.49
2018-07-05T10:11:30.379Z,98041.58
2018-07-05T10:13:58.654Z,98034.98
2018-07-05T10:16:27.296Z,98040.03
2018-07-05T10:18:55.751Z,98043.92
2018-07-05T10:21:24.268Z,98049.34
2018-07-05T10:23:53.019Z,98051.57
2018-07-05T10:26:21.302Z,98050.24
2018-07-05T10:29:01.853Z,98052.92
2018-07-05T10:31:42.634Z,98048.28
2018-07-05T10:34:10.880Z,98046.89
2018-07-05T10:36:39.301Z,98050.53
2018-07-05T10:39:19.875Z,98060.45
2018-07-05T10:42:02.209Z,98058.55
2018-07-05T10:44:44.079Z,98057.48
2018-07-05T10:50:13.744Z,98058.86
2018-07-05T10:55:51.159Z,98057.37
2018-07-05T10:58:35.301Z,98060.27
2018-07-05T11:01:15.802Z,98062.38
2018-07-05T11:03:57.486Z,98069.83
2018-07-05T11:06:38.098Z,98069.83
2018-07-05T11:09:20.185Z,98071.31
2018-07-05T11:12:01.586Z,98073.89
2018-07-05T11:14:45.111Z,98071.23
2018-07-05T11:17:25.645Z,98076.78
2018-07-05T11:20:06.269Z,98071.38
2018-07-05T11:22:46.688Z,98068.17
2018-07-05T11:25:27.361Z,98073.53
2018-07-05T11:28:11.179Z,98076.24
2018-07-05T11:30:52.310Z,98073.40
2018-07-05T11:33:32.862Z,98073.51
2018-07-05T11:36:14.825Z,98072.48
2018-07-05T11:38:55.307Z,98070.64
2018-07-05T11:41:39.404Z,98069.92
2018-07-05T11:44:19.965Z,98069.98
2018-07-05T11:47:03.038Z,98066.18
2018-07-05T11:49:45.341Z,98063.39
2018-07-05T11:52:26.216Z,98073.70
2018-07-05T11:55:09.682Z,98060.81
2018-07-05T11:57:55.299Z,98067.09
2018-07-05T12:00:38.607Z,98062.85
2018-07-05T12:03:23.638Z,98063.59
2018-07-05T12:06:12.440Z,98062.67
2018-07-05T12:09:02.058Z,98062.45
2018-07-05T12:11:47.516Z,98066.17
2018-07-05T12:14:35.512Z,98063.02
2018-07-05T12:17:22.157Z,98057.23
2018-07-05T12:34:33.557Z,98060.62
2018-07-05T12:37:20.781Z,98052.38
2018-07-05T12:43:02.106Z,98055.41
2018-07-05T12:45:48.813Z,98060.50
2018-07-05T12:49:06.343Z,98056.17
2018-07-05T12:51:47.980Z,98056.74
2018-07-05T12:57:26.437Z,98047.52
2018-07-05T13:00:14.372Z,98049.86
2018-07-05T13:05:53.256Z,98048.18
2018-07-05T13:08:41.876Z,98045.06
2018-07-05T13:11:23.529Z,98035.66
2018-07-05T13:14:09.849Z,98043.95
2018-07-05T13:16:56.628Z,98046.25
2018-07-05T13:20:09.974Z,98041.43
2018-07-05T13:22:51.359Z,98038.77
2018-07-05T13:25:35.150Z,98042.55
2018-07-05T13:28:18.980Z,98049.08
2018-07-05T13:31:00.843Z,98045.41
2018-07-05T13:33:47.975Z,98044.88
2018-07-05T13:36:39.494Z,98048.38
2018-07-05T13:39:33.312Z,98044.00
2018-07-05T13:42:15.046Z,98039.13
2018-07-05T13:45:06.694Z,98041.83
2018-07-05T13:47:49.595Z,98039.34
2018-07-05T13:50:41.154Z,98039.78
2018-07-05T13:53:22.443Z,98039.58
2018-07-05T14:02:00.447Z,98032.34
2018-07-05T14:10:23.713Z,98032.09
2018-07-05T14:13:04.353Z,98033.72
2018-07-05T14:15:51.570Z,98031.16
2018-07-05T14:18:37.109Z,98033.73
2018-07-05T14:21:21.909Z,98033.06
2018-07-05T14:24:02.745Z,98031.02
2018-07-05T14:26:43.289Z,98028.31
2018-07-05T14:29:26.128Z,98033.19
2018-07-05T14:32:06.681Z,98026.61
2018-07-05T14:34:47.335Z,98032.06
2018-07-05T14:37:27.929Z,98031.70
2018-07-05T14:40:08.774Z,98031.55
2018-07-05T14:42:49.201Z,98034.44
2018-07-05T14:45:32.114Z,98044.94
2018-07-05T14:48:13.636Z,98042.09
2018-07-05T14:50:57.598Z,98047.58
2018-07-05T14:53:38.265Z,98049.56
2018-07-05T14:56:18.936Z,98047.28
2018-07-05T14:58:59.449Z,98047.08
2018-07-05T15:01:41.098Z,98049.37
2018-07-05T15:04:21.642Z,98047.79
2018-07-05T15:07:02.477Z,98047.26
2018-07-05T15:09:43.082Z,98050.04
2018-07-05T15:12:23.918Z,98050.04
2018-07-05T15:15:04.566Z,98052.27
2018-07-05T15:17:45.189Z,98045.34
2018-07-05T15:20:25.681Z,98047.81
2018-07-05T15:23:08.721Z,98047.35
2018-07-05T15:25:49.292Z,98047.83
2018-07-05T15:28:34.086Z,98046.61
2018-07-05T15:31:24.420Z,98043.73
2018-07-05T15:34:11.387Z,98039.42
2018-07-05T15:39:48.877Z,98043.84
2018-07-05T15:45:20.070Z,98049.50
2018-07-05T15:50:56.665Z,98052.25
2018-07-05T15:53:38.245Z,98050.03
2018-07-05T15:56:28.475Z,98050.38
2018-07-05T16:02:03.233Z,98040.75
2018-07-05T16:07:57.091Z,98042.08
2018-07-05T16:10:48.221Z,98046.05
2018-07-05T16:23:04.775Z,98053.62
2018-07-05T16:25:47.798Z,98062.60
2018-07-05T16:28:29.602Z,98067.61
2018-07-05T16:31:10.516Z,98061.30
2018-07-05T16:33:51.905Z,98067.55
2018-07-05T16:36:40.739Z,98061.95
2018-07-05T16:42:21.147Z,98060.73
2018-07-05T16:45:02.114Z,98061.65
2018-07-05T16:47:44.643Z,98060.44
2018-07-05T16:50:25.413Z,98062.80
2018-07-05T16:53:06.192Z,98063.09
2018-07-05T16:55:52.341Z,98060.32
2018-07-05T16:58:34.016Z,98061.64
2018-07-05T17:04:01.711Z,98059.55
2018-07-05T17:06:48.002Z,98053.64
2018-07-05T17:09:36.308Z,98057.31
2018-07-05T17:12:22.430Z,98055.50
2018-07-05T17:15:11.389Z,98054.96
2018-07-05T17:17:59.590Z,98055.20
2018-07-05T17:20:40.850Z,98059.06
2018-07-05T17:23:34.221Z,98061.34
2018-07-05T17:26:22.541Z,98066.34
2018-07-05T17:31:56.096Z,98069.55
2018-07-05T17:34:37.711Z,98072.27
2018-07-05T17:37:18.211Z,98073.08
2018-07-05T17:40:12.702Z,98075.48
2018-07-05T17:42:53.647Z,98079.86
2018-07-05T17:45:34.060Z,98078.67
2018-07-05T17:48:15.828Z,98075.21
2018-07-05T17:50:58.101Z,98071.28
2018-07-05T17:53:41.446Z,98074.03
2018-07-05T17:59:44.587Z,98077.49
2018-07-05T18:02:30.638Z,98082.73
2018-07-05T18:05:11.244Z,98088.81
2018-07-05T18:07:53.753Z,98095.83
2018-07-05T18:10:39.392Z,98092.11
2018-07-05T18:13:21.016Z,98096.60
2018-07-05T18:16:03.024Z,98100.25
2018-07-05T18:18:49.388Z,98096.86
2018-07-05T18:21:30.398Z,98099.99
2018-07-05T18:24:11.579Z,98100.09
2018-07-05T18:26:54.926Z,98090.36
2018-07-05T18:29:47.509Z,98099.47
2018-07-05T18:32:29.756Z,98093.36
2018-07-05T18:38:10.007Z,98093.30
2018-07-05T18:40:53.252Z,98095.27
2018-07-05T18:43:44.874Z,98091.90
2018-07-05T18:46:31.801Z,98093.19
2018-07-05T18:49:14.122Z,98096.69
2018-07-05T18:51:56.137Z,98096.33
2018-07-05T18:54:37.279Z,98104.23
2018-07-05T18:57:19.159Z,98109.39
2018-07-05T19:00:01.972Z,98110.31
2018-07-05T19:02:44.117Z,98110.31
2018-07-05T19:05:26.092Z,98113.36
2018-07-05T19:08:09.176Z,98110.87
2018-07-05T19:10:51.045Z,98117.00
2018-07-05T19:13:33.113Z,98115.96
2018-07-05T19:16:15.335Z,98113.31
2018-07-05T19:18:57.926Z,98116.33
2018-07-05T19:21:48.076Z,98119.58
2018-07-05T19:24:30.240Z,98117.33
2018-07-05T19:27:22.081Z,98125.91
2018-07-05T19:30:08.300Z,98118.30
2018-07-05T19:35:51.509Z,98118.78
2018-07-05T19:38:41.629Z,98120.27
2018-07-05T19:41:24.311Z,98118.30
2018-07-05T19:44:10.091Z,98119.02
2018-07-05T19:46:57.770Z,98117.48
2018-07-05T19:49:44.256Z,98120.61
2018-07-05T19:52:34.932Z,98120.73
2018-07-05T20:33:48.580Z,97972.87
2018-07-05T20:36:31.343Z,98121.73
2018-07-05T20:39:17.081Z,98121.17
2018-07-05T20:45:00.114Z,98116.08
2018-07-05T20:47:43.201Z,98118.59
2018-07-05T20:50:27.823Z,98116.59
2018-07-05T20:53:21.570Z,98118.11
2018-07-05T20:56:09.101Z,98121.72
2018-07-05T20:58:51.687Z,98124.52
2018-07-05T21:01:32.979Z,98124.16
2018-07-05T21:04:19.344Z,98125.36
2018-07-05T21:07:05.997Z,98133.89
2018-07-05T21:09:53.610Z,98132.78
2018-07-05T21:12:44.723Z,98132.78
2018-07-05T21:15:28.772Z,98132.93
2018-07-05T21:18:15.583Z,98135.30
2018-07-05T21:21:03.276Z,98130.97
2018-07-05T21:23:51.753Z,98132.78
2018-07-05T21:26:46.228Z,98134.61
2018-07-05T21:30:50.836Z,98133.05
2018-07-05T21:33:39.689Z,98140.51
2018-07-05T21:36:32.108Z,98140.23
2018-07-05T21:39:19.288Z,98136.63
2018-07-05T21:42:07.013Z,98137.59
2018-07-05T21:44:49.997Z,98138.30
2018-07-05T21:47:36.449Z,98138.58
2018-07-05T21:50:17.597Z,98140.51
2018-07-05T21:53:02.911Z,98145.20
2018-07-05T21:55:45.949Z,98142.55
2018-07-05T21:58:29.618Z,98139.34
2018-07-05T22:01:13.329Z,98148.59
2018-07-05T22:04:05.434Z,98149.92
2018-07-05T22:06:50.650Z,98165.79
2018-07-05T22:09:46.062Z,98158.33
2018-07-05T22:12:31.714Z,98168.34
2018-07-05T22:15:15.677Z,98164.47
2018-07-05T22:18:06.389Z,98171.37
2018-07-05T22:20:59.744Z,98165.72
2018-07-05T22:23:50.110Z,98170.74
2018-07-05T22:26:43.526Z,98169.81
2018-07-05T22:29:31.018Z,98175.88
2018-07-05T22:32:21.655Z,98181.88
2018-07-05T22:35:06.386Z,98181.66
2018-07-05T22:37:49.580Z,98178.33
2018-07-05T22:40:46.689Z,98172.88
2018-07-05T22:43:29.878Z,98174.20
2018-07-05T22:46:10.396Z,98174.84
2018-07-05T22:48:52.563Z,98179.14
2018-07-05T22:51:33.127Z,98172.46
2018-07-05T22:54:14.866Z,98162.58
2018-07-05T22:56:55.201Z,98172.88
2018-07-05T22:59:36.439Z,98168.44
2018-07-05T23:02:16.974Z,98171.41
2018-07-05T23:04:58.824Z,98164.95
2018-07-05T23:07:39.487Z,98166.48
2018-07-05T23:10:21.401Z,98163.98
2018-07-05T23:13:01.821Z,98166.75
2018-07-05T23:15:42.668Z,98161.46
2018-07-05T23:18:23.844Z,98159.93
2018-07-05T23:21:12.874Z,98162.73
2018-07-05T23:23:53.641Z,98156.32
2018-07-05T23:26:37.141Z,98158.25
2018-07-05T23:29:18.767Z,98156.32
2018-07-05T23:32:00.546Z,98156.05
2018-07-05T23:34:44.239Z,98148.66
2018-07-05T23:37:29.957Z,98144.61
2018-07-05T23:40:13.080Z,98151.91
2018-07-05T23:42:58.771Z,98149.69
2018-07-05T23:45:47.490Z,98148.16
2018-07-05T23:48:37.268Z,98138.96
2018-07-05T23:51:23.685Z,98147.31
2018-07-05T23:54:15.662Z,98144.19
2018-07-05T23:56:56.266Z,98143.23
